sensor_id;sensor_type;location;lat;lon;timestamp;pressure;altitude;pressure_sealevel;temperature;humidity
8697;BME280;4385;48.848;8.924;2023-09-18T00:02:16;96845.41;;;23.88;100.00
8697;BME280;4385;48.848;8.924;2023-09-18T00:04:42;96843.75;;;23.87;100.00
8697;BME280;4385;48.848;8.924;2023-09-18T00:07:07;96842.06;;;23.86;100.00
8697;BME280;4385;48.848;8.924;2023-09-18T00:09:32;96846.31;;;23.87;100.00
8697;BME280;4385;48.848;8.924;2023-09-18T00:11:58;96836.91;;;23.86;100.00
8697;BME280;4385;48.848;8.924;2023-09-18T00:14:23;96841.16;;;23.87;100.00
8697;BME280;4385;48.848;8.924;2023-09-18T00:16:49;96829.97;;;23.88;100.00
8697;BME280;4385;48.848;8.924;2023-09-18T00:19:14;96828.31;;;23.87;100.00
8697;BME280;4385;48.848;8.924;2023-09-18T00:21:39;96817.09;;;23.88;100.00
8697;BME280;4385;48.848;8.924;2023-09-18T00:24:05;96813.69;;;23.87;100.00
8697;BME280;4385;48.848;8.924;2023-09-18T00:26:30;96812.88;;;23.87;100.00
8697;BME280;4385;48.848;8.924;2023-09-18T00:28:55;96818.00;;;23.87;100.00
8697;BME280;4385;48.848;8.924;2023-09-18T00:31:21;96807.72;;;23.87;100.00
8697;BME280;4385;48.848;8.924;2023-09-18T00:33:46;96804.22;;;23.88;100.00
8697;BME280;4385;48.848;8.924;2023-09-18T00:36:11;96798.31;;;23.86;100.00
8697;BME280;4385;48.848;8.924;2023-09-18T00:38:37;96800.91;;;23.86;100.00
8697;BME280;4385;48.848;8.924;2023-09-18T00:41:02;96788.97;;;23.85;100.00
8697;BME280;4385;48.848;8.924;2023-09-18T00:43:28;96788.97;;;23.85;100.00
8697;BME280;4385;48.848;8.924;2023-09-18T00:45:53;96788.97;;;23.85;100.00
8697;BME280;4385;48.848;8.924;2023-09-18T00:48:19;96792.47;;;23.84;100.00
8697;BME280;4385;48.848;8.924;2023-09-18T00:50:45;96788.22;;;23.83;100.00
8697;BME280;4385;48.848;8.924;2023-09-18T00:53:15;96777.03;;;23.84;100.00
8697;BME280;4385;48.848;8.924;2023-09-18T00:55:42;96766.75;;;23.84;100.00
8697;BME280;4385;48.848;8.924;2023-09-18T00:58:08;96768.47;;;23.83;100.00
8697;BME280;4385;48.848;8.924;2023-09-18T01:00:33;96770.19;;;23.83;100.00
8697;BME280;4385;48.848;8.924;2023-09-18T01:03:01;96757.25;;;23.84;100.00
8697;BME280;4385;48.848;8.924;2023-09-18T01:05:27;96762.41;;;23.84;100.00
8697;BME280;4385;48.848;8.924;2023-09-18T01:07:52;96762.41;;;23.84;100.00
8697;BME280;4385;48.848;8.924;2023-09-18T01:10:18;96767.53;;;23.84;100.00
8697;BME280;4385;48.848;8.924;2023-09-18T01:12:53;96767.53;;;23.84;100.00
8697;BME280;4385;48.848;8.924;2023-09-18T01:15:30;96776.09;;;23.85;100.00
8697;BME280;4385;48.848;8.924;2023-09-18T01:17:58;96776.09;;;23.85;100.00
8697;BME280;4385;48.848;8.924;2023-09-18T01:20:23;96772.59;;;23.86;100.00
8697;BME280;4385;48.848;8.924;2023-09-18T01:22:48;96778.50;;;23.88;100.00
8697;BME280;4385;48.848;8.924;2023-09-18T01:25:15;96791.44;;;23.86;100.00
8697;BME280;4385;48.848;8.924;2023-09-18T01:27:40;96792.28;;;23.87;100.00
8697;BME280;4385;48.848;8.924;2023-09-18T01:30:06;96783.66;;;23.88;100.00
8697;BME280;4385;48.848;8.924;2023-09-18T01:32:32;96793.09;;;23.87;100.00
8697;BME280;4385;48.848;8.924;2023-09-18T01:35:00;96806.81;;;23.88;100.00
8697;BME280;4385;48.848;8.924;2023-09-18T01:37:28;96805.97;;;23.87;100.00
8697;BME280;4385;48.848;8.924;2023-09-18T01:39:54;96822.25;;;23.88;100.00
8697;BME280;4385;48.848;8.924;2023-09-18T01:42:23;96843.66;;;23.88;100.00
8697;BME280;4385;48.848;8.924;2023-09-18T01:44:48;96834.19;;;23.89;100.00
8697;BME280;4385;48.848;8.924;2023-09-18T01:47:18;96834.19;;;23.89;100.00
8697;BME280;4385;48.848;8.924;2023-09-18T01:49:44;96828.22;;;23.88;100.00
8697;BME280;4385;48.848;8.924;2023-09-18T01:52:11;96822.16;;;23.89;100.00
8697;BME280;4385;48.848;8.924;2023-09-18T01:54:36;96810.13;;;23.90;100.00
8697;BME280;4385;48.848;8.924;2023-09-18T01:57:02;96784.50;;;23.88;100.00
8697;BME280;4385;48.848;8.924;2023-09-18T01:59:28;96751.94;;;23.87;100.00
8697;BME280;4385;48.848;8.924;2023-09-18T02:01:53;96704.81;;;23.87;100.00
8697;BME280;4385;48.848;8.924;2023-09-18T02:04:19;96680.75;;;23.88;100.00
8697;BME280;4385;48.848;8.924;2023-09-18T02:06:47;96718.50;;;23.87;100.00
8697;BME280;4385;48.848;8.924;2023-09-18T02:09:13;96726.31;;;23.86;100.00
8697;BME280;4385;48.848;8.924;2023-09-18T02:11:40;96734.00;;;23.86;100.00
8697;BME280;4385;48.848;8.924;2023-09-18T02:14:06;96746.97;;;23.84;100.00
8697;BME280;4385;48.848;8.924;2023-09-18T02:16:33;96761.59;;;23.84;100.00
8697;BME280;4385;48.848;8.924;2023-09-18T02:18:58;96781.25;;;23.85;100.00
8697;BME280;4385;48.848;8.924;2023-09-18T02:21:23;96810.47;;;23.84;100.00
8697;BME280;4385;48.848;8.924;2023-09-18T02:23:49;96794.09;;;23.85;100.00
8697;BME280;4385;48.848;8.924;2023-09-18T02:26:15;96779.59;;;23.84;100.00
8697;BME280;4385;48.848;8.924;2023-09-18T02:28:40;96788.13;;;23.84;100.00
8697;BME280;4385;48.848;8.924;2023-09-18T02:31:06;96782.97;;;23.84;100.00
8697;BME280;4385;48.848;8.924;2023-09-18T02:33:31;96767.53;;;23.84;100.00
8697;BME280;4385;48.848;8.924;2023-09-18T02:35:56;96757.25;;;23.84;100.00
8697;BME280;4385;48.848;8.924;2023-09-18T02:38:22;96772.69;;;23.84;100.00
8697;BME280;4385;48.848;8.924;2023-09-18T02:40:47;96771.88;;;23.84;100.00
8697;BME280;4385;48.848;8.924;2023-09-18T02:43:13;96759.75;;;23.86;100.00
8697;BME280;4385;48.848;8.924;2023-09-18T02:45:39;96769.22;;;23.85;100.00
8697;BME280;4385;48.848;8.924;2023-09-18T02:48:05;96770.97;;;23.85;100.00
8697;BME280;4385;48.848;8.924;2023-09-18T02:50:30;96766.66;;;23.85;100.00
8697;BME280;4385;48.848;8.924;2023-09-18T02:52:55;96767.47;;;23.86;100.00
8697;BME280;4385;48.848;8.924;2023-09-18T02:55:20;96764.88;;;23.86;100.00
8697;BME280;4385;48.848;8.924;2023-09-18T02:57:46;96755.44;;;23.86;100.00
8697;BME280;4385;48.848;8.924;2023-09-18T03:00:11;96754.59;;;23.86;100.00
8697;BME280;4385;48.848;8.924;2023-09-18T03:02:36;96749.44;;;23.86;100.00
8697;BME280;4385;48.848;8.924;2023-09-18T03:05:02;96747.81;;;23.85;100.00
8697;BME280;4385;48.848;8.924;2023-09-18T03:07:27;96755.53;;;23.85;100.00
8697;BME280;4385;48.848;8.924;2023-09-18T03:09:55;96758.09;;;23.85;100.00
8697;BME280;4385;48.848;8.924;2023-09-18T03:12:20;96752.94;;;23.85;100.00
8697;BME280;4385;48.848;8.924;2023-09-18T03:14:45;96741.00;;;23.84;100.00
8697;BME280;4385;48.848;8.924;2023-09-18T03:17:12;96734.00;;;23.86;100.00
8697;BME280;4385;48.848;8.924;2023-09-18T03:19:37;96734.00;;;23.86;100.00
8697;BME280;4385;48.848;8.924;2023-09-18T03:22:02;96730.56;;;23.87;100.00
8697;BME280;4385;48.848;8.924;2023-09-18T03:24:28;96734.00;;;23.86;100.00
8697;BME280;4385;48.848;8.924;2023-09-18T03:26:53;96747.81;;;23.85;100.00
8697;BME280;4385;48.848;8.924;2023-09-18T03:29:18;96752.94;;;23.85;100.00
8697;BME280;4385;48.848;8.924;2023-09-18T03:31:43;96762.41;;;23.84;100.00
8697;BME280;4385;48.848;8.924;2023-09-18T03:34:09;96777.03;;;23.84;100.00
8697;BME280;4385;48.848;8.924;2023-09-18T03:36:34;96788.97;;;23.85;100.00
8697;BME280;4385;48.848;8.924;2023-09-18T03:39:01;96792.47;;;23.84;100.00
8697;BME280;4385;48.848;8.924;2023-09-18T03:41:26;96801.81;;;23.85;100.00
8697;BME280;4385;48.848;8.924;2023-09-18T03:43:52;96810.47;;;23.84;100.00
8697;BME280;4385;48.848;8.924;2023-09-18T03:46:17;96821.66;;;23.83;100.00
8697;BME280;4385;48.848;8.924;2023-09-18T03:48:42;96837.94;;;23.83;100.00
8697;BME280;4385;48.848;8.924;2023-09-18T03:51:07;96846.56;;;23.82;100.00
8697;BME280;4385;48.848;8.924;2023-09-18T03:53:37;96874.03;;;23.82;100.00
8697;BME280;4385;48.848;8.924;2023-09-18T03:56:03;96867.97;;;23.83;100.00
8697;BME280;4385;48.848;8.924;2023-09-18T03:58:28;96876.50;;;23.83;100.00
8697;BME280;4385;48.848;8.924;2023-09-18T04:00:53;96880.81;;;23.83;100.00
8697;BME280;4385;48.848;8.924;2023-09-18T04:03:19;96878.25;;;23.83;100.00
8697;BME280;4385;48.848;8.924;2023-09-18T04:05:44;96891.03;;;23.84;100.00
8697;BME280;4385;48.848;8.924;2023-09-18T04:08:10;96889.38;;;23.83;100.00
8697;BME280;4385;48.848;8.924;2023-09-18T04:10:36;96879.94;;;23.84;100.00
8697;BME280;4385;48.848;8.924;2023-09-18T04:13:01;96868.78;;;23.83;100.00
8697;BME280;4385;48.848;8.924;2023-09-18T04:15:27;96853.44;;;23.82;100.00
8697;BME280;4385;48.848;8.924;2023-09-18T04:17:53;96832.88;;;23.82;100.00
8697;BME280;4385;48.848;8.924;2023-09-18T04:20:18;96834.59;;;23.81;100.00
8697;BME280;4385;48.848;8.924;2023-09-18T04:22:45;96825.16;;;23.82;100.00
8697;BME280;4385;48.848;8.924;2023-09-18T04:25:14;96803.72;;;23.81;100.00
8697;BME280;4385;48.848;8.924;2023-09-18T04:27:39;96778.84;;;23.82;100.00
8697;BME280;4385;48.848;8.924;2023-09-18T04:30:06;96750.56;;;23.82;100.00
8697;BME280;4385;48.848;8.924;2023-09-18T04:32:33;96735.03;;;23.83;100.00
8697;BME280;4385;48.848;8.924;2023-09-18T04:34:58;96726.47;;;23.83;100.00
8697;BME280;4385;48.848;8.924;2023-09-18T04:37:23;96708.47;;;23.83;100.00
8697;BME280;4385;48.848;8.924;2023-09-18T04:39:49;96698.94;;;23.85;100.00
8697;BME280;4385;48.848;8.924;2023-09-18T04:42:14;96698.19;;;23.83;100.00
8697;BME280;4385;48.848;8.924;2023-09-18T04:44:39;96715.38;;;23.82;100.00
8697;BME280;4385;48.848;8.924;2023-09-18T04:47:04;96711.13;;;23.81;100.00
8697;BME280;4385;48.848;8.924;2023-09-18T04:49:31;96699.09;;;23.82;100.00
8697;BME280;4385;48.848;8.924;2023-09-18T04:51:56;96689.75;;;23.81;100.00
8697;BME280;4385;48.848;8.924;2023-09-18T04:54:21;96668.31;;;23.80;100.00
8697;BME280;4385;48.848;8.924;2023-09-18T04:56:47;96664.00;;;23.81;100.00
8697;BME280;4385;48.848;8.924;2023-09-18T04:59:12;96679.44;;;23.81;100.00
8697;BME280;4385;48.848;8.924;2023-09-18T05:01:37;96700.84;;;23.81;100.00
8697;BME280;4385;48.848;8.924;2023-09-18T05:04:03;96706.91;;;23.80;100.00
8697;BME280;4385;48.848;8.924;2023-09-18T05:06:28;96712.88;;;23.81;100.00
8697;BME280;4385;48.848;8.924;2023-09-18T05:08:53;96723.19;;;23.81;100.00
8697;BME280;4385;48.848;8.924;2023-09-18T05:11:19;96720.59;;;23.81;100.00
8697;BME280;4385;48.848;8.924;2023-09-18T05:13:44;96720.69;;;23.79;100.00
8697;BME280;4385;48.848;8.924;2023-09-18T05:16:10;96711.22;;;23.79;100.00
8697;BME280;4385;48.848;8.924;2023-09-18T05:18:35;96737.84;;;23.78;100.00
8697;BME280;4385;48.848;8.924;2023-09-18T05:21:01;96739.59;;;23.78;100.00
8697;BME280;4385;48.848;8.924;2023-09-18T05:23:27;96747.31;;;23.78;100.00
8697;BME280;4385;48.848;8.924;2023-09-18T05:25:52;96747.31;;;23.78;100.00
8697;BME280;4385;48.848;8.924;2023-09-18T05:28:18;96755.94;;;23.77;100.00
8697;BME280;4385;48.848;8.924;2023-09-18T05:30:43;96750.81;;;23.77;100.00
8697;BME280;4385;48.848;8.924;2023-09-18T05:33:08;96747.41;;;23.76;100.00
8697;BME280;4385;48.848;8.924;2023-09-18T05:35:36;96743.19;;;23.75;100.00
8697;BME280;4385;48.848;8.924;2023-09-18T05:38:02;96744.00;;;23.76;100.00
8697;BME280;4385;48.848;8.924;2023-09-18T05:40:28;96758.59;;;23.75;100.00
8697;BME280;4385;48.848;8.924;2023-09-18T05:42:54;96772.41;;;23.74;100.00
8697;BME280;4385;48.848;8.924;2023-09-18T05:45:20;96762.81;;;23.76;100.00
8697;BME280;4385;48.848;8.924;2023-09-18T05:47:45;96759.53;;;23.74;100.00
8697;BME280;4385;48.848;8.924;2023-09-18T05:50:12;96754.38;;;23.74;100.00
8697;BME280;4385;48.848;8.924;2023-09-18T05:52:42;96760.44;;;23.73;100.00
8697;BME280;4385;48.848;8.924;2023-09-18T05:55:08;96750.13;;;23.73;100.00
8697;BME280;4385;48.848;8.924;2023-09-18T05:57:34;96752.72;;;23.73;100.00
8697;BME280;4385;48.848;8.924;2023-09-18T05:59:59;96743.25;;;23.74;100.00
8697;BME280;4385;48.848;8.924;2023-09-18T06:02:25;96760.44;;;23.73;100.00
8697;BME280;4385;48.848;8.924;2023-09-18T06:04:57;96747.56;;;23.73;100.00
8697;BME280;4385;48.848;8.924;2023-09-18T06:07:25;96745.00;;;23.73;100.00
8697;BME280;4385;48.848;8.924;2023-09-18T06:09:51;96731.31;;;23.73;100.00
8697;BME280;4385;48.848;8.924;2023-09-18T06:12:16;96731.25;;;23.74;100.00
8697;BME280;4385;48.848;8.924;2023-09-18T06:14:41;96750.13;;;23.73;100.00
8697;BME280;4385;48.848;8.924;2023-09-18T06:17:08;96745.00;;;23.73;100.00
8697;BME280;4385;48.848;8.924;2023-09-18T06:19:34;96746.66;;;23.74;100.00
8697;BME280;4385;48.848;8.924;2023-09-18T06:22:00;96746.75;;;23.73;100.00
8697;BME280;4385;48.848;8.924;2023-09-18T06:24:25;96753.63;;;23.72;100.00
8697;BME280;4385;48.848;8.924;2023-09-18T06:26:50;96760.44;;;23.73;100.00
8697;BME280;4385;48.848;8.924;2023-09-18T06:29:16;96770.72;;;23.73;100.00
8697;BME280;4385;48.848;8.924;2023-09-18T06:31:41;96775.06;;;23.73;100.00
8697;BME280;4385;48.848;8.924;2023-09-18T06:34:06;96780.19;;;23.73;100.00
8697;BME280;4385;48.848;8.924;2023-09-18T06:36:32;96772.56;;;23.71;100.00
8697;BME280;4385;48.848;8.924;2023-09-18T06:38:57;96781.00;;;23.73;100.00
8697;BME280;4385;48.848;8.924;2023-09-18T06:41:23;96774.97;;;23.74;100.00
8697;BME280;4385;48.848;8.924;2023-09-18T06:43:48;96775.69;;;23.76;100.00
8697;BME280;4385;48.848;8.924;2023-09-18T06:46:14;96772.22;;;23.77;100.00
8697;BME280;4385;48.848;8.924;2023-09-18T06:48:39;96766.91;;;23.81;100.00
8697;BME280;4385;48.848;8.924;2023-09-18T06:51:04;96772.78;;;23.83;100.00
8697;BME280;4385;48.848;8.924;2023-09-18T06:53:31;96770.97;;;23.85;100.00
8697;BME280;4385;48.848;8.924;2023-09-18T06:55:56;96766.56;;;23.87;100.00
8697;BME280;4385;48.848;8.924;2023-09-18T06:58:22;96771.53;;;23.90;100.00
8697;BME280;4385;48.848;8.924;2023-09-18T07:00:47;96766.22;;;23.93;100.00
8697;BME280;4385;48.848;8.924;2023-09-18T07:03:16;96768.72;;;23.95;100.00
8697;BME280;4385;48.848;8.924;2023-09-18T07:05:41;96772.84;;;23.97;100.00
8697;BME280;4385;48.848;8.924;2023-09-18T07:08:08;96771.81;;;24.00;100.00
8697;BME280;4385;48.848;8.924;2023-09-18T07:10:37;96765.69;;;24.02;100.00
8697;BME280;4385;48.848;8.924;2023-09-18T07:13:02;96774.97;;;24.05;100.00
8697;BME280;4385;48.848;8.924;2023-09-18T07:15:28;96793.75;;;24.07;100.00
8697;BME280;4385;48.848;8.924;2023-09-18T07:17:53;96800.44;;;24.10;100.00
8697;BME280;4385;48.848;8.924;2023-09-18T07:20:18;96807.16;;;24.12;100.00
8697;BME280;4385;48.848;8.924;2023-09-18T07:22:46;96808.84;;;24.13;100.00
8697;BME280;4385;48.848;8.924;2023-09-18T07:25:12;96823.31;;;24.16;100.00
8697;BME280;4385;48.848;8.924;2023-09-18T07:27:38;96826.63;;;24.18;100.00
8697;BME280;4385;48.848;8.924;2023-09-18T07:30:06;96822.97;;;24.22;100.00
8697;BME280;4385;48.848;8.924;2023-09-18T07:32:31;96821.94;;;24.25;100.00
8697;BME280;4385;48.848;8.924;2023-09-18T07:34:57;96825.25;;;24.27;100.00
8697;BME280;4385;48.848;8.924;2023-09-18T07:37:22;96820.03;;;24.28;100.00
8697;BME280;4385;48.848;8.924;2023-09-18T07:39:49;96828.50;;;24.31;100.00
8697;BME280;4385;48.848;8.924;2023-09-18T07:42:14;96829.22;;;24.33;100.00
8697;BME280;4385;48.848;8.924;2023-09-18T07:44:39;96830.91;;;24.34;100.00
8697;BME280;4385;48.848;8.924;2023-09-18T07:47:05;96836.78;;;24.36;100.00
8697;BME280;4385;48.848;8.924;2023-09-18T07:49:30;96852.97;;;24.38;100.00
8697;BME280;4385;48.848;8.924;2023-09-18T07:51:56;96845.25;;;24.38;100.00
8697;BME280;4385;48.848;8.924;2023-09-18T07:54:21;96851.16;;;24.40;100.00
8697;BME280;4385;48.848;8.924;2023-09-18T07:56:46;96847.56;;;24.43;100.00
8697;BME280;4385;48.848;8.924;2023-09-18T07:59:11;96849.31;;;24.42;100.00
8697;BME280;4385;48.848;8.924;2023-09-18T08:01:39;96861.28;;;24.43;100.00
8697;BME280;4385;48.848;8.924;2023-09-18T08:04:05;96856.13;;;24.43;100.00
8697;BME280;4385;48.848;8.924;2023-09-18T08:06:31;96854.28;;;24.45;100.00
8697;BME280;4385;48.848;8.924;2023-09-18T08:08:56;96866.25;;;24.46;100.00
8697;BME280;4385;48.848;8.924;2023-09-18T08:11:21;96876.56;;;24.46;100.00
8697;BME280;4385;48.848;8.924;2023-09-18T08:13:46;96890.16;;;24.48;100.00
8697;BME280;4385;48.848;8.924;2023-09-18T08:16:12;96884.19;;;24.48;100.00
8697;BME280;4385;48.848;8.924;2023-09-18T08:18:38;96885.00;;;24.48;100.00
8697;BME280;4385;48.848;8.924;2023-09-18T08:21:06;96893.47;;;24.50;100.00
8697;BME280;4385;48.848;8.924;2023-09-18T08:23:31;96908.94;;;24.50;100.00
8697;BME280;4385;48.848;8.924;2023-09-18T08:25:57;96906.34;;;24.50;100.00
8697;BME280;4385;48.848;8.924;2023-09-18T08:28:23;96895.13;;;24.51;100.00
8697;BME280;4385;48.848;8.924;2023-09-18T08:30:48;96901.97;;;24.52;100.00
8697;BME280;4385;48.848;8.924;2023-09-18T08:33:14;96899.38;;;24.52;100.00
8697;BME280;4385;48.848;8.924;2023-09-18T08:35:39;96913.16;;;24.51;100.00
8697;BME280;4385;48.848;8.924;2023-09-18T08:38:05;96913.16;;;24.51;100.00
8697;BME280;4385;48.848;8.924;2023-09-18T08:40:31;96907.91;;;24.53;100.00
8697;BME280;4385;48.848;8.924;2023-09-18T08:42:57;96894.16;;;24.54;100.00
8697;BME280;4385;48.848;8.924;2023-09-18T08:45:28;96882.00;;;24.56;100.00
8697;BME280;4385;48.848;8.924;2023-09-18T08:47:56;96870.03;;;24.55;100.00
8697;BME280;4385;48.848;8.924;2023-09-18T08:50:22;96870.03;;;24.55;100.00
8697;BME280;4385;48.848;8.924;2023-09-18T08:52:48;96870.03;;;24.55;100.00
8697;BME280;4385;48.848;8.924;2023-09-18T08:55:16;96876.84;;;24.56;100.00
8697;BME280;4385;48.848;8.924;2023-09-18T08:57:42;96884.47;;;24.58;100.00
8697;BME280;4385;48.848;8.924;2023-09-18T09:00:08;96895.63;;;24.58;100.00
8697;BME280;4385;48.848;8.924;2023-09-18T09:02:36;96918.81;;;24.58;100.00
8697;BME280;4385;48.848;8.924;2023-09-18T09:05:02;96927.28;;;24.60;100.00
8697;BME280;4385;48.848;8.924;2023-09-18T09:07:28;96930.84;;;24.58;100.00
8697;BME280;4385;48.848;8.924;2023-09-18T09:09:56;96932.53;;;24.59;100.00
8697;BME280;4385;48.848;8.924;2023-09-18T09:12:53;96952.09;;;24.61;100.00
8697;BME280;4385;48.848;8.924;2023-09-18T09:15:20;96963.44;;;24.59;100.00
8697;BME280;4385;48.848;8.924;2023-09-18T09:17:45;96959.00;;;24.61;100.00
8697;BME280;4385;48.848;8.924;2023-09-18T09:20:12;96952.19;;;24.60;100.00
8697;BME280;4385;48.848;8.924;2023-09-18T09:22:38;96949.53;;;24.61;100.00
8697;BME280;4385;48.848;8.924;2023-09-18T09:27:47;96927.19;;;24.62;100.00
8697;BME280;4385;48.848;8.924;2023-09-18T09:30:19;96922.84;;;24.62;100.00
8697;BME280;4385;48.848;8.924;2023-09-18T09:32:47;96913.38;;;24.63;100.00
8697;BME280;4385;48.848;8.924;2023-09-18T09:35:28;96907.31;;;24.64;100.00
8697;BME280;4385;48.848;8.924;2023-09-18T09:38:00;96908.16;;;24.64;100.00
8697;BME280;4385;48.848;8.924;2023-09-18T09:40:26;96902.91;;;24.66;100.00
8697;BME280;4385;48.848;8.924;2023-09-18T09:42:56;96895.09;;;24.68;100.00
8697;BME280;4385;48.848;8.924;2023-09-18T09:45:31;96892.53;;;24.68;100.00
8697;BME280;4385;48.848;8.924;2023-09-18T09:48:00;96895.94;;;24.68;100.00
8697;BME280;4385;48.848;8.924;2023-09-18T09:50:26;96895.09;;;24.68;100.00
8697;BME280;4385;48.848;8.924;2023-09-18T09:52:53;96888.19;;;24.68;100.00
8697;BME280;4385;48.848;8.924;2023-09-18T09:55:30;96876.13;;;24.69;100.00
8697;BME280;4385;48.848;8.924;2023-09-18T10:00:24;96858.84;;;24.71;100.00
8697;BME280;4385;48.848;8.924;2023-09-18T10:02:57;96871.72;;;24.71;100.00
8697;BME280;4385;48.848;8.924;2023-09-18T10:05:36;96881.28;;;24.69;100.00
8697;BME280;4385;48.848;8.924;2023-09-18T10:08:06;96928.66;;;24.66;100.00
8697;BME280;4385;48.848;8.924;2023-09-18T10:10:35;96927.91;;;24.64;100.00
8697;BME280;4385;48.848;8.924;2023-09-18T10:13:10;96933.16;;;24.62;100.00
8697;BME280;4385;48.848;8.924;2023-09-18T10:15:38;96916.97;;;24.60;100.00
8697;BME280;4385;48.848;8.924;2023-09-18T10:18:14;96919.63;;;24.59;100.00
8697;BME280;4385;48.848;8.924;2023-09-18T10:20:44;96894.06;;;24.56;100.00
8697;BME280;4385;48.848;8.924;2023-09-18T10:23:20;96918.13;;;24.54;100.00
8697;BME280;4385;48.848;8.924;2023-09-18T10:25:51;96915.72;;;24.51;100.00
8697;BME280;4385;48.848;8.924;2023-09-18T10:28:20;96915.66;;;24.53;100.00
8697;BME280;4385;48.848;8.924;2023-09-18T10:30:47;96927.03;;;24.49;100.00
8697;BME280;4385;48.848;8.924;2023-09-18T10:33:13;96961.44;;;24.48;100.00
8697;BME280;4385;48.848;8.924;2023-09-18T10:35:39;96953.81;;;24.46;100.00
8697;BME280;4385;48.848;8.924;2023-09-18T10:38:06;96941.81;;;24.45;100.00
8697;BME280;4385;48.848;8.924;2023-09-18T10:40:32;96944.47;;;24.44;100.00
8697;BME280;4385;48.848;8.924;2023-09-18T10:43:02;96946.25;;;24.43;100.00
8697;BME280;4385;48.848;8.924;2023-09-18T10:45:29;96947.16;;;24.42;100.00
8697;BME280;4385;48.848;8.924;2023-09-18T10:47:55;96949.00;;;24.40;100.00
8697;BME280;4385;48.848;8.924;2023-09-18T10:50:25;96941.34;;;24.38;100.00
8697;BME280;4385;48.848;8.924;2023-09-18T10:52:51;96935.38;;;24.38;100.00
8697;BME280;4385;48.848;8.924;2023-09-18T10:55:16;96943.00;;;24.39;100.00
8697;BME280;4385;48.848;8.924;2023-09-18T10:57:56;96924.16;;;24.39;100.00
8697;BME280;4385;48.848;8.924;2023-09-18T11:00:24;96913.94;;;24.37;100.00
8697;BME280;4385;48.848;8.924;2023-09-18T11:03:09;96911.09;;;24.42;100.00
8697;BME280;4385;48.848;8.924;2023-09-18T11:05:35;96908.53;;;24.42;100.00
8697;BME280;4385;48.848;8.924;2023-09-18T11:11:06;96913.50;;;24.45;100.00
8697;BME280;4385;48.848;8.924;2023-09-18T11:13:36;96919.50;;;24.46;100.00
8697;BME280;4385;48.848;8.924;2023-09-18T11:18:47;96929.78;;;24.46;100.00
8697;BME280;4385;48.848;8.924;2023-09-18T11:21:15;96923.88;;;24.44;100.00
8697;BME280;4385;48.848;8.924;2023-09-18T11:23:42;96931.69;;;24.42;100.00
8697;BME280;4385;48.848;8.924;2023-09-18T11:26:11;96936.94;;;24.40;100.00
8697;BME280;4385;48.848;8.924;2023-09-18T11:28:37;96945.75;;;24.36;100.00
8697;BME280;4385;48.848;8.924;2023-09-18T11:31:03;96939.84;;;24.34;100.00
8697;BME280;4385;48.848;8.924;2023-09-18T11:33:30;96942.50;;;24.33;100.00
8697;BME280;4385;48.848;8.924;2023-09-18T11:35:56;96940.03;;;24.31;100.00
8697;BME280;4385;48.848;8.924;2023-09-18T11:38:21;96947.81;;;24.29;100.00
8697;BME280;4385;48.848;8.924;2023-09-18T11:40:48;96948.00;;;24.26;100.00
8697;BME280;4385;48.848;8.924;2023-09-18T11:43:22;96960.06;;;24.26;100.00
8697;BME280;4385;48.848;8.924;2023-09-18T11:45:55;96958.47;;;24.23;100.00
8697;BME280;4385;48.848;8.924;2023-09-18T11:48:22;96956.81;;;24.22;100.00
8697;BME280;4385;48.848;8.924;2023-09-18T11:50:53;96968.91;;;24.20;100.00
8697;BME280;4385;48.848;8.924;2023-09-18T11:53:20;96976.72;;;24.19;100.00
8697;BME280;4385;48.848;8.924;2023-09-18T11:55:46;96974.22;;;24.17;100.00
8697;BME280;4385;48.848;8.924;2023-09-18T11:58:11;96961.44;;;24.15;100.00
8697;BME280;4385;48.848;8.924;2023-09-18T12:00:37;96968.41;;;24.13;100.00
8697;BME280;4385;48.848;8.924;2023-09-18T12:05:51;96955.63;;;24.12;100.00
8697;BME280;4385;48.848;8.924;2023-09-18T12:08:17;96965.16;;;24.10;100.00
8697;BME280;4385;48.848;8.924;2023-09-18T12:10:43;96971.22;;;24.09;100.00
8697;BME280;4385;48.848;8.924;2023-09-18T12:13:08;96960.19;;;24.07;100.00
8697;BME280;4385;48.848;8.924;2023-09-18T12:15:34;96966.25;;;24.06;100.00
8697;BME280;4385;48.848;8.924;2023-09-18T12:18:07;96954.28;;;24.04;100.00
8697;BME280;4385;48.848;8.924;2023-09-18T12:20:32;96945.75;;;24.04;100.00
8697;BME280;4385;48.848;8.924;2023-09-18T12:22:59;96943.25;;;24.02;100.00
8697;BME280;4385;48.848;8.924;2023-09-18T12:25:24;96949.28;;;24.01;100.00
8697;BME280;4385;48.848;8.924;2023-09-18T12:27:54;96939.94;;;24.00;100.00
8697;BME280;4385;48.848;8.924;2023-09-18T12:30:20;96935.69;;;23.99;100.00
8697;BME280;4385;48.848;8.924;2023-09-18T12:32:46;96935.69;;;23.99;100.00
8697;BME280;4385;48.848;8.924;2023-09-18T12:35:13;96934.94;;;23.97;100.00
8697;BME280;4385;48.848;8.924;2023-09-18T12:37:39;96938.44;;;23.96;100.00
8697;BME280;4385;48.848;8.924;2023-09-18T12:42:47;96940.25;;;23.94;100.00
8697;BME280;4385;48.848;8.924;2023-09-18T12:45:12;96946.31;;;23.93;100.00
8697;BME280;4385;48.848;8.924;2023-09-18T12:47:38;96937.75;;;23.92;100.00
8697;BME280;4385;48.848;8.924;2023-09-18T12:50:05;96938.69;;;23.91;100.00
8697;BME280;4385;48.848;8.924;2023-09-18T12:52:32;96960.16;;;23.90;100.00
8697;BME280;4385;48.848;8.924;2023-09-18T12:54:57;96962.81;;;23.89;100.00
8697;BME280;4385;48.848;8.924;2023-09-18T12:57:25;96948.13;;;23.91;100.00
8697;BME280;4385;48.848;8.924;2023-09-18T12:59:50;96955.94;;;23.89;100.00
8697;BME280;4385;48.848;8.924;2023-09-18T13:02:18;96942.31;;;23.87;100.00
8697;BME280;4385;48.848;8.924;2023-09-18T13:04:51;96934.59;;;23.87;100.00
8697;BME280;4385;48.848;8.924;2023-09-18T13:07:17;96937.16;;;23.87;100.00
8697;BME280;4385;48.848;8.924;2023-09-18T13:09:42;96930.28;;;23.88;100.00
8697;BME280;4385;48.848;8.924;2023-09-18T13:12:08;96936.34;;;23.87;100.00
8697;BME280;4385;48.848;8.924;2023-09-18T13:14:59;96926.97;;;23.86;100.00
8697;BME280;4385;48.848;8.924;2023-09-18T13:17:43;96927.78;;;23.86;100.00
8697;BME280;4385;48.848;8.924;2023-09-18T13:20:27;96928.72;;;23.85;100.00
8697;BME280;4385;48.848;8.924;2023-09-18T13:22:56;96926.22;;;23.84;100.00
8697;BME280;4385;48.848;8.924;2023-09-18T13:25:27;96919.31;;;23.84;100.00